createdAt,value
2022-12-23T00:00:05.704Z,0
2022-12-23T00:01:05.630Z,0
2022-12-23T00:02:05.724Z,0
2022-12-23T00:03:05.833Z,0
2022-12-23T00:04:05.974Z,0
2022-12-23T00:05:05.657Z,0
2022-12-23T00:06:05.637Z,0
2022-12-23T00:07:05.640Z,0
2022-12-23T00:08:05.641Z,0
2022-12-23T00:09:05.675Z,0
2022-12-23T00:10:05.641Z,0
2022-12-23T00:11:05.649Z,0
2022-12-23T00:12:05.640Z,0
2022-12-23T00:13:05.640Z,0
2022-12-23T00:14:05.648Z,0
2022-12-23T00:15:05.639Z,0
2022-12-23T00:16:05.721Z,0
2022-12-23T00:17:17.523Z,0
2022-12-23T00:18:05.641Z,0
2022-12-23T00:19:05.655Z,0
2022-12-23T00:20:05.685Z,0
2022-12-23T00:21:08.784Z,0
2022-12-23T00:22:05.675Z,0
2022-12-23T00:23:05.755Z,0
2022-12-23T00:24:05.656Z,0
2022-12-23T00:25:05.651Z,0
2022-12-23T00:26:05.653Z,0
2022-12-23T00:27:05.653Z,0
2022-12-23T00:28:05.656Z,0
2022-12-23T00:29:05.692Z,0
2022-12-23T00:30:05.634Z,0
2022-12-23T00:31:05.653Z,0
2022-12-23T00:32:05.671Z,0
2022-12-23T00:33:05.657Z,0
2022-12-23T00:34:05.671Z,0
2022-12-23T00:35:05.673Z,0
2022-12-23T00:36:05.721Z,0
2022-12-23T00:37:05.660Z,0
2022-12-23T00:38:05.651Z,0
2022-12-23T00:39:05.667Z,0
2022-12-23T00:40:06.935Z,0
2022-12-23T00:41:05.654Z,0
2022-12-23T00:42:05.696Z,0
2022-12-23T00:43:05.654Z,0
2022-12-23T00:44:05.686Z,0
2022-12-23T00:45:05.680Z,0
2022-12-23T00:46:05.680Z,0
2022-12-23T00:47:05.656Z,0
2022-12-23T00:48:05.713Z,0
2022-12-23T00:49:05.672Z,0
2022-12-23T00:50:05.683Z,0
2022-12-23T00:51:05.655Z,0
2022-12-23T00:52:05.660Z,0
2022-12-23T00:53:05.658Z,0
2022-12-23T00:54:05.672Z,0
2022-12-23T00:55:05.649Z,0
2022-12-23T00:56:05.662Z,0
2022-12-23T00:57:05.656Z,0
2022-12-23T00:58:05.651Z,0
2022-12-23T00:59:05.676Z,0
2022-12-23T01:00:05.641Z,0
2022-12-23T01:01:05.644Z,0
2022-12-23T01:02:05.873Z,0
2022-12-23T01:03:05.768Z,0
2022-12-23T01:04:05.669Z,0
2022-12-23T01:05:05.693Z,0
2022-12-23T01:06:05.644Z,0
2022-12-23T01:07:05.658Z,0
2022-12-23T01:08:05.632Z,0
2022-12-23T01:09:05.647Z,0
2022-12-23T01:10:05.662Z,0
2022-12-23T01:11:05.640Z,0
2022-12-23T01:12:05.639Z,0
2022-12-23T01:13:05.636Z,0
2022-12-23T01:14:05.654Z,0
2022-12-23T01:15:05.648Z,0
2022-12-23T01:16:07.470Z,0
2022-12-23T01:17:05.651Z,0
2022-12-23T01:18:05.635Z,0
2022-12-23T01:19:05.650Z,0
2022-12-23T01:20:05.660Z,0
2022-12-23T01:21:05.658Z,0
2022-12-23T01:22:05.636Z,0
2022-12-23T01:23:05.640Z,0
2022-12-23T01:24:05.651Z,0
2022-12-23T01:25:05.630Z,0
2022-12-23T01:26:05.634Z,0
2022-12-23T01:27:05.639Z,0
2022-12-23T01:28:05.665Z,0
2022-12-23T01:29:05.687Z,0
2022-12-23T01:30:05.637Z,0
2022-12-23T01:31:05.649Z,0
2022-12-23T01:32:05.765Z,0
2022-12-23T01:33:05.661Z,0
2022-12-23T01:34:05.670Z,0
2022-12-23T01:35:05.663Z,0
2022-12-23T01:36:05.655Z,0
2022-12-23T01:37:05.724Z,0
2022-12-23T01:38:05.655Z,0
2022-12-23T01:39:05.666Z,0
2022-12-23T01:40:05.640Z,0
2022-12-23T01:41:05.695Z,0
2022-12-23T01:42:05.681Z,0
2022-12-23T01:43:05.644Z,0
2022-12-23T01:44:05.674Z,0
2022-12-23T01:45:05.649Z,0
2022-12-23T01:46:05.696Z,0
2022-12-23T01:47:05.649Z,0
2022-12-23T01:48:05.656Z,0
2022-12-23T01:49:05.667Z,0
2022-12-23T01:50:05.665Z,0
2022-12-23T01:51:05.672Z,0
2022-12-23T01:52:05.655Z,0
2022-12-23T01:53:08.179Z,0
2022-12-23T01:54:05.674Z,0
2022-12-23T01:55:05.649Z,0
2022-12-23T01:56:05.651Z,0
2022-12-23T01:57:05.796Z,0
2022-12-23T01:58:05.660Z,0
2022-12-23T01:59:05.664Z,0
2022-12-23T02:00:05.643Z,0
2022-12-23T02:01:05.696Z,0
2022-12-23T02:02:05.935Z,0
2022-12-23T02:03:05.787Z,0
2022-12-23T02:04:05.673Z,0
2022-12-23T02:05:05.661Z,0
2022-12-23T02:06:05.652Z,0
2022-12-23T02:07:05.651Z,0
2022-12-23T02:08:05.668Z,0
2022-12-23T02:09:05.667Z,0
2022-12-23T02:10:05.656Z,0
2022-12-23T02:11:05.637Z,0
2022-12-23T02:12:05.639Z,0
2022-12-23T02:13:05.648Z,0
2022-12-23T02:14:05.705Z,0
2022-12-23T02:15:05.636Z,0
2022-12-23T02:16:05.641Z,0
2022-12-23T02:17:05.684Z,0
2022-12-23T02:18:05.632Z,0
2022-12-23T02:19:05.646Z,0
2022-12-23T02:20:05.653Z,0
2022-12-23T02:21:05.667Z,0
2022-12-23T02:22:05.636Z,0
2022-12-23T02:23:05.643Z,0
2022-12-23T02:24:05.665Z,0
2022-12-23T02:25:05.682Z,0
2022-12-23T02:26:05.644Z,0
2022-12-23T02:27:05.637Z,0
2022-12-23T02:28:05.638Z,0
2022-12-23T02:29:05.659Z,0
2022-12-23T02:30:05.676Z,0
2022-12-23T02:31:05.708Z,0
2022-12-23T02:32:05.644Z,0
2022-12-23T02:33:05.642Z,0
2022-12-23T02:34:05.654Z,0
2022-12-23T02:35:05.669Z,0
2022-12-23T02:36:05.653Z,0
2022-12-23T02:37:05.642Z,0
2022-12-23T02:38:05.652Z,0
2022-12-23T02:39:05.668Z,0
2022-12-23T02:40:05.656Z,0
2022-12-23T02:41:05.681Z,0
2022-12-23T02:42:05.657Z,0
2022-12-23T02:43:05.657Z,0
2022-12-23T02:44:05.662Z,0
2022-12-23T02:45:05.657Z,0
2022-12-23T02:46:05.716Z,0
2022-12-23T02:47:05.663Z,0
2022-12-23T02:48:05.665Z,0
2022-12-23T02:49:05.675Z,0
2022-12-23T02:50:05.689Z,0
2022-12-23T02:51:05.661Z,0
2022-12-23T02:52:05.672Z,0
2022-12-23T02:53:05.667Z,0
2022-12-23T02:54:05.673Z,0
2022-12-23T02:55:05.670Z,0
2022-12-23T02:56:05.673Z,0
2022-12-23T02:57:05.653Z,0
2022-12-23T02:58:05.658Z,0
2022-12-23T02:59:05.760Z,0
2022-12-23T03:00:05.643Z,0
2022-12-23T03:01:05.758Z,0
2022-12-23T03:02:05.873Z,0
2022-12-23T03:03:05.911Z,0
2022-12-23T03:04:06.783Z,0
2022-12-23T03:05:05.689Z,0
2022-12-23T03:06:05.657Z,0
2022-12-23T03:07:07.827Z,0
2022-12-23T03:08:05.658Z,0
2022-12-23T03:09:05.673Z,0
2022-12-23T03:10:05.657Z,0
2022-12-23T03:11:05.659Z,0
2022-12-23T03:12:05.669Z,0
2022-12-23T03:13:05.654Z,0
2022-12-23T03:14:05.663Z,0
2022-12-23T03:15:05.648Z,0
2022-12-23T03:16:05.702Z,0
2022-12-23T03:17:05.661Z,0
2022-12-23T03:18:05.774Z,0
2022-12-23T03:19:05.653Z,0
2022-12-23T03:20:05.651Z,0
2022-12-23T03:21:05.637Z,0
2022-12-23T03:22:05.638Z,0
2022-12-23T03:23:05.641Z,0
2022-12-23T03:24:05.659Z,0
2022-12-23T03:25:05.664Z,0
2022-12-23T03:26:05.643Z,0
2022-12-23T03:27:05.635Z,0
2022-12-23T03:28:05.634Z,0
2022-12-23T03:29:05.665Z,0
2022-12-23T03:30:05.629Z,0
2022-12-23T03:31:05.783Z,0
2022-12-23T03:32:05.639Z,0
2022-12-23T03:33:05.653Z,0
2022-12-23T03:34:05.665Z,0
2022-12-23T03:35:05.669Z,0
2022-12-23T03:36:05.640Z,0
2022-12-23T03:37:05.698Z,0
2022-12-23T03:38:05.638Z,0
2022-12-23T03:39:05.653Z,0
2022-12-23T03:40:05.665Z,0
2022-12-23T03:41:05.651Z,0
2022-12-23T03:42:05.664Z,0
2022-12-23T03:43:05.657Z,0
2022-12-23T03:44:05.664Z,0
2022-12-23T03:46:05.708Z,0
2022-12-23T03:47:05.661Z,0
2022-12-23T03:48:05.654Z,0
2022-12-23T03:49:05.671Z,0
2022-12-23T03:50:05.668Z,0
2022-12-23T03:51:05.659Z,0
2022-12-23T03:52:05.651Z,0
2022-12-23T03:53:05.648Z,0
2022-12-23T03:54:05.669Z,0
2022-12-23T03:55:05.680Z,0
2022-12-23T03:56:05.665Z,0
2022-12-23T03:57:05.656Z,0
2022-12-23T03:58:05.654Z,0
2022-12-23T03:59:05.667Z,0
2022-12-23T04:00:05.639Z,0
2022-12-23T04:01:05.642Z,0
2022-12-23T04:02:05.864Z,0
2022-12-23T04:03:05.723Z,0
2022-12-23T04:04:05.737Z,0
2022-12-23T04:05:05.708Z,0
2022-12-23T04:06:05.654Z,0
2022-12-23T04:07:05.649Z,0
2022-12-23T04:08:05.651Z,0
2022-12-23T04:09:05.678Z,0
2022-12-23T04:10:05.666Z,0
2022-12-23T04:11:05.656Z,0
2022-12-23T04:12:05.678Z,0
2022-12-23T04:13:05.662Z,0
2022-12-23T04:14:05.671Z,0
2022-12-23T04:15:12.332Z,0
2022-12-23T04:16:05.709Z,0
2022-12-23T04:17:05.663Z,0
2022-12-23T04:18:05.659Z,0
2022-12-23T04:19:05.669Z,0
2022-12-23T04:20:05.673Z,0
2022-12-23T04:21:05.659Z,0
2022-12-23T04:22:05.635Z,0
2022-12-23T04:23:05.652Z,0
2022-12-23T04:24:05.658Z,0
2022-12-23T04:25:05.644Z,0
2022-12-23T04:26:05.639Z,0
2022-12-23T04:27:05.741Z,0
2022-12-23T04:28:05.634Z,0
2022-12-23T04:29:05.657Z,0
2022-12-23T04:30:05.636Z,0
2022-12-23T04:31:05.676Z,0
2022-12-23T04:32:05.635Z,0
2022-12-23T04:33:05.648Z,0
2022-12-23T04:34:05.682Z,0
2022-12-23T04:35:05.661Z,0
2022-12-23T04:36:05.643Z,0
2022-12-23T04:37:05.644Z,0
2022-12-23T04:38:05.639Z,0
2022-12-23T04:39:05.654Z,0
2022-12-23T04:40:05.638Z,0
2022-12-23T04:41:05.639Z,0
2022-12-23T04:42:05.640Z,0
2022-12-23T04:43:05.650Z,0
2022-12-23T04:44:05.668Z,0
2022-12-23T04:45:05.655Z,0
2022-12-23T04:46:05.964Z,0
2022-12-23T04:47:05.776Z,0
2022-12-23T04:48:05.663Z,0
2022-12-23T04:49:05.675Z,0
2022-12-23T04:50:05.671Z,0
2022-12-23T04:51:05.668Z,0
2022-12-23T04:52:05.650Z,0
2022-12-23T04:53:05.653Z,0
2022-12-23T04:54:05.669Z,0
2022-12-23T04:55:05.655Z,0
2022-12-23T04:56:05.670Z,0
2022-12-23T04:57:05.657Z,0
2022-12-23T04:58:05.712Z,0
2022-12-23T04:59:05.664Z,0
2022-12-23T05:00:05.646Z,0
2022-12-23T05:01:05.821Z,0
2022-12-23T05:02:05.890Z,0
2022-12-23T05:03:05.766Z,0
2022-12-23T05:04:05.779Z,0
2022-12-23T05:05:05.670Z,0
2022-12-23T05:06:05.665Z,0
2022-12-23T05:07:05.658Z,0
2022-12-23T05:08:05.661Z,0
2022-12-23T05:09:05.666Z,0
2022-12-23T05:10:05.634Z,0
2022-12-23T05:11:05.650Z,0
2022-12-23T05:12:05.664Z,0
2022-12-23T05:13:05.648Z,0
2022-12-23T05:14:05.666Z,0
2022-12-23T05:15:05.659Z,0
2022-12-23T05:16:05.768Z,0
2022-12-23T05:17:07.968Z,0
2022-12-23T05:18:05.653Z,0
2022-12-23T05:19:05.670Z,0
2022-12-23T05:20:05.652Z,0
2022-12-23T05:21:05.645Z,0
2022-12-23T05:22:05.657Z,0
2022-12-23T05:23:05.680Z,0
2022-12-23T05:24:05.671Z,0
2022-12-23T05:25:05.656Z,0
2022-12-23T05:26:05.655Z,0
2022-12-23T05:27:05.658Z,0
2022-12-23T05:28:05.652Z,0
2022-12-23T05:29:05.681Z,0
2022-12-23T05:30:05.640Z,0
2022-12-23T05:31:05.695Z,0
2022-12-23T05:32:05.782Z,0
2022-12-23T05:33:05.675Z,0
2022-12-23T05:34:06.859Z,0
2022-12-23T05:35:05.696Z,0
2022-12-23T05:36:05.635Z,0
2022-12-23T05:37:05.634Z,0
2022-12-23T05:38:05.642Z,0
2022-12-23T05:39:05.655Z,0
2022-12-23T05:40:05.643Z,0
2022-12-23T05:41:05.681Z,0
2022-12-23T05:42:05.651Z,0
2022-12-23T05:43:05.638Z,0
2022-12-23T05:44:05.721Z,0
2022-12-23T05:45:05.633Z,0
2022-12-23T05:46:05.760Z,0
2022-12-23T05:47:05.632Z,0
2022-12-23T05:48:05.640Z,0
2022-12-23T05:49:05.656Z,0
2022-12-23T05:50:05.653Z,0
2022-12-23T05:51:05.637Z,0
2022-12-23T05:52:05.637Z,0
2022-12-23T05:53:05.648Z,0
2022-12-23T05:54:05.658Z,0
2022-12-23T05:55:05.651Z,0
2022-12-23T05:56:05.667Z,0
2022-12-23T05:57:05.659Z,0
2022-12-23T05:58:05.658Z,0
2022-12-23T05:59:05.664Z,0
2022-12-23T06:00:05.651Z,0
2022-12-23T06:01:05.648Z,0
2022-12-23T06:02:05.808Z,0
2022-12-23T06:03:05.876Z,0
2022-12-23T06:04:05.787Z,0
2022-12-23T06:05:05.698Z,0
2022-12-23T06:06:05.681Z,0
2022-12-23T06:07:05.666Z,0
2022-12-23T06:08:05.666Z,0
2022-12-23T06:09:05.668Z,0
2022-12-23T06:10:05.638Z,0
2022-12-23T06:11:05.658Z,0
2022-12-23T06:12:05.664Z,0
2022-12-23T06:13:05.673Z,0
2022-12-23T06:14:05.664Z,0
2022-12-23T06:15:05.660Z,0
2022-12-23T06:16:05.721Z,0
2022-12-23T06:17:05.716Z,0
2022-12-23T06:18:05.649Z,0
2022-12-23T06:19:05.669Z,0
2022-12-23T06:20:05.663Z,0
2022-12-23T06:21:05.651Z,0
2022-12-23T06:22:05.646Z,0
2022-12-23T06:23:05.649Z,0
2022-12-23T06:24:05.673Z,0
2022-12-23T06:25:05.647Z,0
2022-12-23T06:26:05.664Z,0
2022-12-23T06:27:05.651Z,0
2022-12-23T06:28:05.653Z,0
2022-12-23T06:29:05.699Z,0
2022-12-23T06:30:05.646Z,1
2022-12-23T06:31:05.650Z,1
2022-12-23T06:32:05.748Z,1
2022-12-23T06:33:05.663Z,3
2022-12-23T06:34:05.677Z,3
2022-12-23T06:35:05.672Z,5
2022-12-23T06:36:05.647Z,7
2022-12-23T06:37:05.647Z,9
2022-12-23T06:38:10.297Z,11
2022-12-23T06:39:05.656Z,12
2022-12-23T06:40:05.644Z,16
2022-12-23T06:41:05.645Z,18
2022-12-23T06:42:05.638Z,22
2022-12-23T06:43:05.640Z,23
2022-12-23T06:44:05.655Z,27
2022-12-23T06:45:05.637Z,29
2022-12-23T06:46:05.821Z,35
2022-12-23T06:47:05.672Z,38
2022-12-23T06:48:05.646Z,44
2022-12-23T06:49:11.038Z,47
2022-12-23T06:50:05.655Z,53
2022-12-23T06:51:05.636Z,57
2022-12-23T06:52:05.636Z,62
2022-12-23T06:53:05.643Z,70
2022-12-23T06:54:05.654Z,75
2022-12-23T06:55:05.635Z,82
2022-12-23T06:56:05.635Z,90
2022-12-23T06:57:05.637Z,99
2022-12-23T06:58:05.655Z,108
2022-12-23T06:59:05.672Z,119
2022-12-23T07:00:05.638Z,129
2022-12-23T07:01:05.690Z,141
2022-12-23T07:02:05.976Z,152
2022-12-23T07:03:05.811Z,167
2022-12-23T07:04:05.674Z,178
2022-12-23T07:05:05.671Z,191
2022-12-23T07:06:05.668Z,208
2022-12-23T07:07:05.651Z,221
2022-12-23T07:08:05.658Z,234
2022-12-23T07:09:05.670Z,234
2022-12-23T07:10:05.670Z,250
2022-12-23T07:11:05.657Z,252
2022-12-23T07:12:05.654Z,252
2022-12-23T07:13:05.655Z,250
2022-12-23T07:14:05.684Z,256
2022-12-23T07:15:05.667Z,280
2022-12-23T07:16:05.695Z,309
2022-12-23T07:17:05.760Z,329
2022-12-23T07:18:05.668Z,346
2022-12-23T07:19:05.685Z,361
2022-12-23T07:20:05.676Z,379
2022-12-23T07:21:07.929Z,405
2022-12-23T07:22:05.674Z,444
2022-12-23T07:23:05.663Z,490
2022-12-23T07:24:05.670Z,519
2022-12-23T07:25:05.702Z,541
2022-12-23T07:26:05.648Z,565
2022-12-23T07:27:05.657Z,597
2022-12-23T07:28:05.666Z,624
2022-12-23T07:29:05.697Z,654
2022-12-23T07:30:05.655Z,683
2022-12-23T07:31:05.725Z,720
2022-12-23T07:32:05.746Z,752
2022-12-23T07:33:05.657Z,788
2022-12-23T07:34:05.680Z,799
2022-12-23T07:35:05.673Z,818
2022-12-23T07:36:05.653Z,822
2022-12-23T07:37:05.689Z,823
2022-12-23T07:38:05.660Z,849
2022-12-23T07:39:05.668Z,833
2022-12-23T07:40:08.843Z,838
2022-12-23T07:41:05.657Z,888
2022-12-23T07:43:05.671Z,912
2022-12-23T07:44:05.663Z,888
2022-12-23T07:45:05.646Z,884
2022-12-23T07:46:05.672Z,860
2022-12-23T07:47:05.648Z,864
2022-12-23T07:48:05.638Z,890
2022-12-23T07:49:05.664Z,864
2022-12-23T07:50:05.666Z,829
2022-12-23T07:51:05.645Z,847
2022-12-23T07:52:05.634Z,873
2022-12-23T07:53:05.638Z,892
2022-12-23T07:54:05.657Z,940
2022-12-23T07:55:05.646Z,1039
2022-12-23T07:56:05.646Z,1196
2022-12-23T07:57:05.641Z,1356
2022-12-23T07:58:05.638Z,1400
2022-12-23T07:59:05.671Z,1404
2022-12-23T08:00:05.653Z,1478
2022-12-23T08:01:05.698Z,1518
2022-12-23T08:02:05.837Z,1502
2022-12-23T08:03:05.704Z,1408
2022-12-23T08:04:05.652Z,1365
2022-12-23T08:05:05.737Z,1422
2022-12-23T08:06:05.634Z,1583
2022-12-23T08:07:05.641Z,1800
2022-12-23T08:08:05.643Z,1819
2022-12-23T08:09:05.654Z,1819
2022-12-23T08:10:05.642Z,2114
2022-12-23T08:11:05.660Z,2377
2022-12-23T08:12:05.676Z,2309
2022-12-23T08:13:05.665Z,1865
2022-12-23T08:14:05.668Z,1430
2022-12-23T08:15:05.656Z,1253
2022-12-23T08:16:05.708Z,1135
2022-12-23T08:17:05.730Z,1100
2022-12-23T08:18:05.776Z,1013
2022-12-23T08:19:05.669Z,943
2022-12-23T08:20:05.671Z,1074
2022-12-23T08:21:05.701Z,1439
2022-12-23T08:22:05.663Z,1677
2022-12-23T08:23:05.655Z,1716
2022-12-23T08:24:05.678Z,1791
2022-12-23T08:25:05.672Z,1793
2022-12-23T08:26:05.647Z,1933
2022-12-23T08:27:05.651Z,2009
2022-12-23T08:28:05.660Z,1915
2022-12-23T08:29:05.678Z,2145
2022-12-23T08:30:05.637Z,2329
2022-12-23T08:31:05.828Z,2648
2022-12-23T08:32:05.649Z,2650
2022-12-23T08:33:05.649Z,2484
2022-12-23T08:34:05.676Z,2388
2022-12-23T08:35:05.664Z,2324
2022-12-23T08:36:05.650Z,2374
2022-12-23T08:37:05.649Z,2480
2022-12-23T08:38:05.653Z,2587
2022-12-23T08:39:05.674Z,2746
2022-12-23T08:40:05.653Z,2923
2022-12-23T08:41:05.650Z,3039
2022-12-23T08:42:05.654Z,3172
2022-12-23T08:43:05.647Z,3229
2022-12-23T08:44:05.674Z,3118
2022-12-23T08:45:05.663Z,2949
2022-12-23T08:46:05.682Z,2750
2022-12-23T08:47:05.671Z,2558
2022-12-23T08:48:05.657Z,2335
2022-12-23T08:49:05.664Z,2187
2022-12-23T08:50:05.687Z,2224
2022-12-23T08:51:05.673Z,2355
2022-12-23T08:52:05.646Z,2449
2022-12-23T08:53:05.660Z,2515
2022-12-23T08:54:05.688Z,2632
2022-12-23T08:55:05.640Z,2696
2022-12-23T08:56:05.650Z,2597
2022-12-23T08:57:05.633Z,2713
2022-12-23T08:58:05.630Z,2727
2022-12-23T08:59:05.650Z,2495
2022-12-23T09:00:05.631Z,2322
2022-12-23T09:01:05.687Z,2210
2022-12-23T09:02:05.741Z,2117
2022-12-23T09:03:05.749Z,2104
2022-12-23T09:04:05.767Z,2077
2022-12-23T09:05:05.667Z,2077
2022-12-23T09:06:05.644Z,2023
2022-12-23T09:07:05.642Z,1986
2022-12-23T09:08:05.657Z,2082
2022-12-23T09:09:05.690Z,2082
2022-12-23T09:10:05.650Z,2458
2022-12-23T09:11:05.634Z,2845
2022-12-23T09:12:05.640Z,2503
2022-12-23T09:13:05.640Z,2783
2022-12-23T09:14:05.659Z,3404
2022-12-23T09:15:05.633Z,4073
2022-12-23T09:16:05.671Z,4737
2022-12-23T09:17:05.631Z,5044
2022-12-23T09:18:05.645Z,5105
2022-12-23T09:19:05.678Z,6003
2022-12-23T09:20:05.660Z,5465
2022-12-23T09:21:05.689Z,4864
2022-12-23T09:22:05.656Z,4537
2022-12-23T09:23:05.663Z,5277
2022-12-23T09:24:05.665Z,6753
2022-12-23T09:25:05.722Z,5295
2022-12-23T09:26:05.657Z,4547
2022-12-23T09:27:05.734Z,5197
2022-12-23T09:28:05.680Z,6171
2022-12-23T09:29:05.685Z,7732
2022-12-23T09:30:05.680Z,8312
2022-12-23T09:31:05.709Z,6917
2022-12-23T09:32:05.649Z,7699
2022-12-23T09:33:05.723Z,6215
2022-12-23T09:34:05.682Z,3389
2022-12-23T09:35:05.668Z,3363
2022-12-23T09:36:05.653Z,3688
2022-12-23T09:37:05.656Z,4672
2022-12-23T09:38:05.651Z,5621
2022-12-23T09:39:05.663Z,5776
2022-12-23T09:40:05.662Z,5642
2022-12-23T09:41:05.647Z,5752
2022-12-23T09:42:05.655Z,4799
2022-12-23T09:43:05.696Z,3844
2022-12-23T09:44:05.676Z,3122
2022-12-23T09:45:05.653Z,3065
2022-12-23T09:46:05.728Z,3234
2022-12-23T09:47:05.657Z,3078
2022-12-23T09:48:05.657Z,4257
2022-12-23T09:49:05.679Z,3279
2022-12-23T09:50:05.663Z,3196
2022-12-23T09:51:05.667Z,4101
2022-12-23T09:52:05.652Z,4294
2022-12-23T09:53:05.653Z,5354
2022-12-23T09:54:05.680Z,5818
2022-12-23T09:55:05.654Z,6099
2022-12-23T09:56:05.655Z,6198
2022-12-23T09:57:05.660Z,5765
2022-12-23T09:58:05.664Z,5267
2022-12-23T09:59:05.666Z,4762
2022-12-23T10:00:05.672Z,4031
2022-12-23T10:01:05.634Z,4031
2022-12-23T10:02:05.746Z,4101
2022-12-23T10:03:05.879Z,4213
2022-12-23T10:04:05.748Z,4200
2022-12-23T10:05:05.661Z,3924
2022-12-23T10:06:05.643Z,3623
2022-12-23T10:07:05.634Z,2893
2022-12-23T10:08:05.672Z,2482
2022-12-23T10:09:05.649Z,2482
2022-12-23T10:10:05.639Z,2833
2022-12-23T10:11:05.635Z,3015
2022-12-23T10:12:05.634Z,2882
2022-12-23T10:13:05.640Z,2182
2022-12-23T10:14:05.657Z,2045
2022-12-23T10:15:05.645Z,2071
2022-12-23T10:16:05.666Z,2268
2022-12-23T10:17:05.644Z,2624
2022-12-23T10:18:05.639Z,3430
2022-12-23T10:19:05.654Z,3946
2022-12-23T10:20:05.675Z,4149
2022-12-23T10:21:05.635Z,3389
2022-12-23T10:22:05.646Z,2797
2022-12-23T10:23:05.638Z,2014
2022-12-23T10:24:05.662Z,2055
2022-12-23T10:25:05.641Z,2630
2022-12-23T10:26:05.652Z,2727
2022-12-23T10:27:05.653Z,2891
2022-12-23T10:28:05.653Z,3634
2022-12-23T10:29:05.784Z,4818
2022-12-23T10:30:33.852Z,4799
2022-12-23T10:31:31.149Z,3472
2022-12-23T10:32:05.685Z,3192
2022-12-23T10:33:05.651Z,3444
2022-12-23T10:34:05.672Z,2884
2022-12-23T10:35:05.679Z,2355
2022-12-23T10:36:05.752Z,2466
2022-12-23T10:37:05.844Z,2425
2022-12-23T10:38:05.650Z,2593
2022-12-23T10:39:05.675Z,2475
2022-12-23T10:40:05.646Z,1876
2022-12-23T10:41:09.440Z,1614
2022-12-23T10:42:05.663Z,1522
2022-12-23T10:43:05.666Z,1657
2022-12-23T10:44:05.680Z,1811
2022-12-23T10:45:05.669Z,2527
2022-12-23T10:46:05.653Z,2858
2022-12-23T10:47:05.746Z,2086
2022-12-23T10:48:11.916Z,1644
2022-12-23T10:49:05.677Z,1963
2022-12-23T10:50:05.663Z,2163
2022-12-23T10:51:05.659Z,2213
2022-12-23T10:52:05.656Z,1841
2022-12-23T10:53:05.652Z,1363
2022-12-23T10:54:05.673Z,1231
2022-12-23T10:55:05.675Z,1467
2022-12-23T10:56:05.654Z,2204
2022-12-23T10:57:05.656Z,2998
2022-12-23T10:58:05.665Z,3177
2022-12-23T10:59:05.674Z,3161
2022-12-23T11:00:05.650Z,2300
2022-12-23T11:01:11.776Z,1618
2022-12-23T11:02:05.865Z,1343
2022-12-23T11:03:05.924Z,1183
2022-12-23T11:04:05.660Z,1093
2022-12-23T11:05:05.659Z,1284
2022-12-23T11:06:05.660Z,1951
2022-12-23T11:07:41.955Z,2449
2022-12-23T11:08:05.658Z,1802
2022-12-23T11:09:05.790Z,1802
2022-12-23T11:10:05.698Z,1968
2022-12-23T11:11:05.652Z,2374
2022-12-23T11:12:05.650Z,2488
2022-12-23T11:13:05.644Z,3137
2022-12-23T11:14:05.660Z,3314
2022-12-23T11:15:05.636Z,2213
2022-12-23T11:16:05.658Z,1686
2022-12-23T11:17:05.659Z,1697
2022-12-23T11:18:05.658Z,1539
2022-12-23T11:19:05.684Z,1378
2022-12-23T11:20:05.711Z,1500
2022-12-23T11:21:05.646Z,1706
2022-12-23T11:22:05.642Z,1852
2022-12-23T11:23:05.664Z,1852
2022-12-23T11:24:05.663Z,1548
2022-12-23T11:25:05.637Z,1522
2022-12-23T11:26:05.640Z,1708
2022-12-23T11:27:05.644Z,2182
2022-12-23T11:28:05.641Z,2233
2022-12-23T11:29:05.661Z,1953
2022-12-23T11:30:05.658Z,1588
2022-12-23T11:31:05.763Z,1419
2022-12-23T11:32:05.669Z,1459
2022-12-23T11:33:05.643Z,1590
2022-12-23T11:34:05.657Z,1533
2022-12-23T11:35:05.686Z,1505
2022-12-23T11:36:05.669Z,1559
2022-12-23T11:37:07.682Z,1579
2022-12-23T11:38:05.689Z,1651
2022-12-23T11:39:05.674Z,1317
2022-12-23T11:40:05.707Z,1059
2022-12-23T11:41:05.650Z,1067
2022-12-23T11:42:05.654Z,1183
2022-12-23T11:43:05.652Z,1231
2022-12-23T11:44:05.680Z,1113
2022-12-23T11:45:05.679Z,1194
2022-12-23T11:46:05.712Z,1177
2022-12-23T11:47:05.653Z,1310
2022-12-23T11:48:05.656Z,1404
2022-12-23T11:49:05.683Z,1398
2022-12-23T11:50:05.670Z,1258
2022-12-23T11:51:05.653Z,1150
2022-12-23T11:52:05.654Z,1139
2022-12-23T11:53:05.658Z,1288
2022-12-23T11:54:05.665Z,1266
2022-12-23T11:55:05.666Z,1282
2022-12-23T11:56:05.663Z,1645
2022-12-23T11:57:05.725Z,1658
2022-12-23T11:58:05.649Z,1439
2022-12-23T11:59:05.679Z,1456
2022-12-23T12:00:05.636Z,1699
2022-12-23T12:01:05.653Z,1349
2022-12-23T12:02:05.717Z,1126
2022-12-23T12:03:05.717Z,1673
2022-12-23T12:04:05.673Z,2088
2022-12-23T12:05:05.682Z,2117
2022-12-23T12:06:05.661Z,2005
2022-12-23T12:07:05.676Z,2012
2022-12-23T12:08:05.667Z,2479
2022-12-23T12:09:05.676Z,2479
2022-12-23T12:10:05.649Z,2075
2022-12-23T12:11:05.648Z,2484
2022-12-23T12:12:05.655Z,3013
2022-12-23T12:13:05.671Z,3664
2022-12-23T12:14:05.680Z,3524
2022-12-23T12:15:05.660Z,3402
2022-12-23T12:16:05.651Z,3315
2022-12-23T12:17:05.750Z,3074
2022-12-23T12:18:05.651Z,2797
2022-12-23T12:19:05.683Z,2392
2022-12-23T12:20:05.725Z,2232
2022-12-23T12:21:05.665Z,2296
2022-12-23T12:22:05.637Z,2134
2022-12-23T12:23:05.672Z,2184
2022-12-23T12:24:18.197Z,2182
2022-12-23T12:25:05.638Z,2021
2022-12-23T12:26:05.643Z,1961
2022-12-23T12:27:05.639Z,1776
2022-12-23T12:28:05.639Z,1664
2022-12-23T12:29:05.650Z,1649
2022-12-23T12:30:08.717Z,1583
2022-12-23T12:31:05.668Z,1529
2022-12-23T12:32:05.635Z,1717
2022-12-23T12:33:05.646Z,1657
2022-12-23T12:34:05.650Z,1725
2022-12-23T12:35:05.651Z,1588
2022-12-23T12:36:05.838Z,1435
2022-12-23T12:37:05.639Z,1378
2022-12-23T12:38:05.644Z,1238
2022-12-23T12:39:05.653Z,1212
2022-12-23T12:40:05.638Z,1387
2022-12-23T12:41:05.635Z,1566
2022-12-23T12:42:06.139Z,1496
2022-12-23T12:43:05.653Z,1647
2022-12-23T12:44:05.665Z,1926
2022-12-23T12:45:05.664Z,1951
2022-12-23T12:46:05.694Z,1542
2022-12-23T12:47:28.039Z,1489
2022-12-23T12:48:13.113Z,1336
2022-12-23T12:49:05.707Z,1137
2022-12-23T12:50:05.656Z,973
2022-12-23T12:51:05.674Z,892
2022-12-23T12:52:05.655Z,805
2022-12-23T12:53:05.646Z,798
2022-12-23T12:54:06.444Z,742
2022-12-23T12:55:05.670Z,667
2022-12-23T12:56:05.658Z,685
2022-12-23T12:57:05.669Z,774
2022-12-23T12:58:05.644Z,893
2022-12-23T12:59:05.655Z,1032
2022-12-23T13:00:06.792Z,1153
2022-12-23T13:01:05.682Z,1487
2022-12-23T13:02:05.669Z,1905
2022-12-23T13:03:05.752Z,2005
2022-12-23T13:04:05.665Z,1955
2022-12-23T13:05:05.675Z,1697
2022-12-23T13:06:05.663Z,1281
2022-12-23T13:07:05.640Z,1046
2022-12-23T13:08:05.659Z,827
2022-12-23T13:09:05.669Z,827
2022-12-23T13:10:05.667Z,569
2022-12-23T13:11:05.647Z,466
2022-12-23T13:12:05.669Z,505
2022-12-23T13:13:05.650Z,687
2022-12-23T13:14:05.669Z,997
2022-12-23T13:15:05.651Z,1240
2022-12-23T13:16:05.659Z,1102
2022-12-23T13:17:05.682Z,1137
2022-12-23T13:18:05.657Z,1150
2022-12-23T13:19:05.681Z,1129
2022-12-23T13:20:05.697Z,1096
2022-12-23T13:21:05.670Z,1135
2022-12-23T13:22:05.673Z,1240
2022-12-23T13:23:27.153Z,1620
2022-12-23T13:24:05.697Z,1710
2022-12-23T13:25:05.660Z,1616
2022-12-23T13:26:05.655Z,1150
2022-12-23T13:27:05.657Z,794
2022-12-23T13:28:05.643Z,648
2022-12-23T13:29:05.664Z,619
2022-12-23T13:30:05.671Z,659
2022-12-23T13:31:05.718Z,739
2022-12-23T13:32:05.641Z,740
2022-12-23T13:33:05.669Z,788
2022-12-23T13:34:05.657Z,855
2022-12-23T13:35:05.725Z,799
2022-12-23T13:36:06.380Z,718
2022-12-23T13:37:05.719Z,680
2022-12-23T13:38:05.668Z,648
2022-12-23T13:39:05.664Z,611
2022-12-23T13:40:05.667Z,580
2022-12-23T13:41:05.644Z,593
2022-12-23T13:42:06.325Z,586
2022-12-23T13:43:05.639Z,506
2022-12-23T13:44:05.659Z,470
2022-12-23T13:45:05.647Z,477
2022-12-23T13:46:05.696Z,492
2022-12-23T13:47:05.651Z,497
2022-12-23T13:48:05.654Z,447
2022-12-23T13:49:05.670Z,390
2022-12-23T13:50:05.676Z,340
2022-12-23T13:51:05.650Z,289
2022-12-23T13:52:05.637Z,254
2022-12-23T13:53:05.725Z,223
2022-12-23T13:54:05.693Z,195
2022-12-23T13:55:05.659Z,180
2022-12-23T13:56:05.654Z,171
2022-12-23T13:57:05.657Z,167
2022-12-23T13:58:05.659Z,167
2022-12-23T13:59:05.765Z,160
2022-12-23T14:00:06.480Z,162
2022-12-23T14:01:05.727Z,180
2022-12-23T14:02:05.734Z,204
2022-12-23T14:03:05.788Z,215
2022-12-23T14:04:05.667Z,206
2022-12-23T14:05:05.674Z,191